createdAt,value
2018-05-11T00:01:52.687Z,77.00
2018-05-11T00:04:20.975Z,77.10
2018-05-11T00:06:49.389Z,77.00
2018-05-11T00:09:17.733Z,77.40
2018-05-11T00:11:45.986Z,77.40
2018-05-11T00:14:14.805Z,77.70
2018-05-11T00:16:43.203Z,78.40
2018-05-11T00:19:12.458Z,78.40
2018-05-11T00:21:41.122Z,78.30
2018-05-11T00:24:09.453Z,77.30
2018-05-11T00:26:37.933Z,77.80
2018-05-11T00:29:06.232Z,77.70
2018-05-11T00:31:34.601Z,77.60
2018-05-11T00:34:02.878Z,77.60
2018-05-11T00:36:31.230Z,78.00
2018-05-11T00:38:59.650Z,78.00
2018-05-11T00:41:28.711Z,78.60
2018-05-11T00:43:57.009Z,78.60
2018-05-11T00:46:25.263Z,78.90
2018-05-11T00:48:53.744Z,79.30
2018-05-11T00:51:22.129Z,78.50
2018-05-11T00:53:50.408Z,78.50
2018-05-11T00:56:18.659Z,78.90
2018-05-11T00:58:47.046Z,78.90
2018-05-11T01:01:15.305Z,79.00
2018-05-11T01:03:43.573Z,78.60
2018-05-11T01:06:12.129Z,79.00
2018-05-11T01:08:40.415Z,78.70
2018-05-11T01:11:08.687Z,79.20
2018-05-11T01:13:37.738Z,79.20
2018-05-11T01:16:05.982Z,79.10
2018-05-11T01:18:34.241Z,79.10
2018-05-11T01:21:02.584Z,79.30
2018-05-11T01:23:30.840Z,79.50
2018-05-11T01:25:59.133Z,79.90
2018-05-11T01:28:27.395Z,80.10
2018-05-11T01:30:55.657Z,79.80
2018-05-11T01:33:23.915Z,79.80
2018-05-11T01:35:52.188Z,79.30
2018-05-11T01:38:20.433Z,79.60
2018-05-11T01:40:49.475Z,79.00
2018-05-11T01:43:17.803Z,79.00
2018-05-11T01:45:46.059Z,79.30
2018-05-11T01:48:14.320Z,79.50
2018-05-11T01:50:42.577Z,80.30
2018-05-11T01:53:11.678Z,79.80
2018-05-11T01:55:39.958Z,79.80
2018-05-11T01:58:08.258Z,80.80
2018-05-11T02:00:36.582Z,80.10
2018-05-11T02:03:04.848Z,79.60
2018-05-11T02:05:33.870Z,79.90
2018-05-11T02:08:02.136Z,79.90
2018-05-11T02:10:30.405Z,80.00
2018-05-11T02:12:58.791Z,79.60
2018-05-11T02:15:27.110Z,80.20
2018-05-11T02:17:55.346Z,80.70
2018-05-11T02:20:23.607Z,80.50
2018-05-11T02:22:51.865Z,80.50
2018-05-11T02:25:20.124Z,80.60
2018-05-11T02:27:48.375Z,80.60
2018-05-11T02:30:16.630Z,80.20
2018-05-11T02:32:44.907Z,80.50
2018-05-11T02:35:13.180Z,80.70
2018-05-11T02:37:41.538Z,80.90
2018-05-11T02:40:09.667Z,81.60
2018-05-11T02:42:37.935Z,81.90
2018-05-11T02:45:06.205Z,82.50
2018-05-11T02:47:34.483Z,83.20
2018-05-11T02:50:02.738Z,83.20
2018-05-11T02:52:31.039Z,83.00
2018-05-11T02:54:59.274Z,83.60
2018-05-11T02:57:27.558Z,83.60
2018-05-11T02:59:55.837Z,83.60
2018-05-11T03:02:24.099Z,83.60
2018-05-11T03:04:52.361Z,84.00
2018-05-11T03:07:21.373Z,83.20
2018-05-11T03:09:49.645Z,83.10
2018-05-11T03:12:17.899Z,82.10
2018-05-11T03:14:46.981Z,81.80
2018-05-11T03:17:15.254Z,81.80
2018-05-11T03:19:43.524Z,82.40
2018-05-11T03:22:11.802Z,82.90
2018-05-11T03:24:40.078Z,82.80
2018-05-11T03:27:08.366Z,82.20
2018-05-11T03:29:36.664Z,82.30
2018-05-11T03:32:05.867Z,82.60
2018-05-11T03:34:34.130Z,82.60
2018-05-11T03:37:03.174Z,82.80
2018-05-11T03:39:31.418Z,82.80
2018-05-11T03:41:59.687Z,83.20
2018-05-11T03:44:28.003Z,83.30
2018-05-11T03:46:56.264Z,83.60
2018-05-11T03:49:24.544Z,83.30
2018-05-11T03:51:52.800Z,83.30
2018-05-11T03:54:21.077Z,82.90
2018-05-11T03:56:49.339Z,82.70
2018-05-11T03:59:18.388Z,83.00
2018-05-11T04:01:59.404Z,82.80
2018-05-11T04:04:40.415Z,82.60
2018-05-11T04:07:21.427Z,82.60
2018-05-11T04:09:49.693Z,82.50
2018-05-11T04:12:17.963Z,82.50
2018-05-11T04:14:46.222Z,82.40
2018-05-11T04:17:14.502Z,82.40
2018-05-11T04:19:42.805Z,82.50
2018-05-11T04:22:11.088Z,82.40
2018-05-11T04:24:39.325Z,82.40
2018-05-11T04:27:07.759Z,82.30
2018-05-11T04:29:36.011Z,82.30
2018-05-11T04:32:04.306Z,82.20
2018-05-11T04:34:32.718Z,82.30
2018-05-11T04:37:01.122Z,82.70
2018-05-11T04:39:29.347Z,82.80
2018-05-11T04:41:58.383Z,82.60
2018-05-11T04:44:26.650Z,82.50
2018-05-11T04:46:54.940Z,82.50
2018-05-11T04:49:23.196Z,82.50
2018-05-11T04:51:51.582Z,82.20
2018-05-11T04:54:19.844Z,82.00
2018-05-11T04:56:48.136Z,82.50
2018-05-11T04:59:16.399Z,82.30
2018-05-11T05:01:44.665Z,82.10
2018-05-11T05:04:13.709Z,82.40
2018-05-11T05:06:41.961Z,82.40
2018-05-11T05:09:10.237Z,81.90
2018-05-11T05:11:38.697Z,81.90
2018-05-11T05:14:07.763Z,81.50
2018-05-11T05:16:36.025Z,81.50
2018-05-11T05:19:04.413Z,82.90
2018-05-11T05:21:32.579Z,82.00
2018-05-11T05:24:00.855Z,81.00
2018-05-11T05:26:29.127Z,81.50
2018-05-11T05:28:57.405Z,81.80
2018-05-11T05:31:25.787Z,80.70
2018-05-11T05:33:54.046Z,80.60
2018-05-11T05:36:22.309Z,81.00
2018-05-11T05:38:50.596Z,80.40
2018-05-11T05:41:18.885Z,80.60
2018-05-11T05:43:47.205Z,80.30
2018-05-11T05:46:16.263Z,79.70
2018-05-11T05:48:44.524Z,79.70
2018-05-11T05:51:12.920Z,79.50
2018-05-11T05:53:41.410Z,79.60
2018-05-11T05:56:09.731Z,79.80
2018-05-11T05:58:37.998Z,79.60
2018-05-11T06:01:06.274Z,78.70
2018-05-11T06:03:34.551Z,79.60
2018-05-11T06:06:02.809Z,79.70
2018-05-11T06:08:31.074Z,79.90
2018-05-11T06:10:59.371Z,79.30
2018-05-11T06:13:27.653Z,78.70
2018-05-11T06:15:56.682Z,78.10
2018-05-11T06:18:24.955Z,78.10
2018-05-11T06:20:53.271Z,77.60
2018-05-11T06:23:21.530Z,76.90
2018-05-11T06:25:49.921Z,75.00
2018-05-11T06:28:18.207Z,73.50
2018-05-11T06:30:46.492Z,70.40
2018-05-11T06:33:14.737Z,67.90
2018-05-11T06:35:43.044Z,65.70
2018-05-11T06:38:11.315Z,63.70
2018-05-11T06:40:39.943Z,59.10
2018-05-11T06:43:08.212Z,58.00
2018-05-11T06:45:36.491Z,55.60
2018-05-11T06:48:05.586Z,51.80
2018-05-11T06:50:33.865Z,48.40
2018-05-11T06:53:02.135Z,45.70
2018-05-11T06:55:30.466Z,44.60
2018-05-11T06:57:58.748Z,43.80
2018-05-11T07:00:27.980Z,42.80
2018-05-11T07:02:56.586Z,43.00
2018-05-11T07:05:24.865Z,42.00
2018-05-11T07:07:53.165Z,41.00
2018-05-11T07:10:21.409Z,41.50
2018-05-11T07:12:49.699Z,40.80
2018-05-11T07:15:18.117Z,39.70
2018-05-11T07:17:46.467Z,39.70
2018-05-11T07:20:14.713Z,40.00
2018-05-11T07:22:43.007Z,39.70
2018-05-11T07:25:11.364Z,39.10
2018-05-11T07:27:39.640Z,39.10
2018-05-11T07:30:07.931Z,37.00
2018-05-11T07:32:36.212Z,37.80
2018-05-11T07:35:04.772Z,37.70
2018-05-11T07:37:32.979Z,37.40
2018-05-11T07:40:01.292Z,36.10
2018-05-11T07:42:29.625Z,34.80
2018-05-11T07:44:57.928Z,35.20
2018-05-11T07:47:26.438Z,34.20
2018-05-11T07:49:54.766Z,34.90
2018-05-11T07:52:23.068Z,34.60
2018-05-11T07:54:51.402Z,35.10
2018-05-11T07:57:21.637Z,35.10
2018-05-11T07:59:49.989Z,34.10
2018-05-11T08:02:19.518Z,33.60
2018-05-11T08:04:47.778Z,33.50
2018-05-11T08:07:16.111Z,34.20
2018-05-11T08:09:45.214Z,33.30
2018-05-11T08:12:14.282Z,32.90
2018-05-11T08:14:42.585Z,32.90
2018-05-11T08:17:10.903Z,35.20
2018-05-11T08:19:39.336Z,36.00
2018-05-11T08:22:07.946Z,38.00
2018-05-11T08:24:36.241Z,40.60
2018-05-11T08:27:04.535Z,39.10
2018-05-11T08:29:32.906Z,36.20
2018-05-11T08:32:01.163Z,40.00
2018-05-11T08:34:29.471Z,39.40
2018-05-11T08:36:57.745Z,39.00
2018-05-11T08:39:26.021Z,39.10
2018-05-11T08:41:54.316Z,38.90
2018-05-11T08:44:22.598Z,39.00
2018-05-11T08:46:50.869Z,39.90
2018-05-11T08:49:19.292Z,44.90
2018-05-11T08:51:47.597Z,49.40
2018-05-11T08:54:15.862Z,52.00
2018-05-11T08:56:44.140Z,54.20
2018-05-11T08:59:12.608Z,55.20
2018-05-11T09:01:40.874Z,55.90
2018-05-11T09:04:09.199Z,57.00
2018-05-11T09:06:37.487Z,58.20
2018-05-11T09:09:05.773Z,59.00
2018-05-11T09:11:34.111Z,59.60
2018-05-11T09:14:02.468Z,58.30
2018-05-11T09:16:30.901Z,58.30
2018-05-11T09:18:59.240Z,57.10
2018-05-11T09:21:27.617Z,57.20
2018-05-11T09:23:55.907Z,58.20
2018-05-11T09:26:24.188Z,59.00
2018-05-11T09:28:52.510Z,58.90
2018-05-11T09:31:21.364Z,58.00
2018-05-11T09:33:49.682Z,56.70
2018-05-11T09:36:17.970Z,57.20
2018-05-11T09:38:47.014Z,58.80
2018-05-11T09:41:15.326Z,58.80
2018-05-11T09:43:43.625Z,58.20
2018-05-11T09:46:11.918Z,57.80
2018-05-11T09:48:40.220Z,56.90
2018-05-11T09:51:08.523Z,57.60
2018-05-11T09:53:36.906Z,56.90
2018-05-11T09:56:05.204Z,55.00
2018-05-11T09:58:34.382Z,54.10
2018-05-11T10:01:02.670Z,54.10
2018-05-11T10:03:31.723Z,54.60
2018-05-11T10:06:00.020Z,54.60
2018-05-11T10:08:28.304Z,54.40
2018-05-11T10:10:56.649Z,52.30
2018-05-11T10:13:24.957Z,51.90
2018-05-11T10:15:53.230Z,52.40
2018-05-11T10:18:21.742Z,52.60
2018-05-11T10:20:50.064Z,52.00
2018-05-11T10:23:18.327Z,51.30
2018-05-11T10:25:46.643Z,50.90
2018-05-11T10:28:14.921Z,50.90
2018-05-11T10:30:43.203Z,51.70
2018-05-11T10:33:12.298Z,51.50
2018-05-11T10:35:40.572Z,52.40
2018-05-11T10:38:08.867Z,53.60
2018-05-11T10:40:37.906Z,54.10
2018-05-11T10:43:06.305Z,53.40
2018-05-11T10:45:34.558Z,53.40
2018-05-11T10:48:02.881Z,52.90
2018-05-11T10:50:31.968Z,52.00
2018-05-11T10:53:00.258Z,51.80
2018-05-11T10:55:29.317Z,51.40
2018-05-11T10:57:57.568Z,52.00
2018-05-11T11:00:25.845Z,50.30
2018-05-11T11:02:54.105Z,51.30
2018-05-11T11:05:22.390Z,51.60
2018-05-11T11:07:50.658Z,51.90
2018-05-11T11:10:18.923Z,52.00
2018-05-11T11:12:47.971Z,51.70
2018-05-11T11:15:16.355Z,51.60
2018-05-11T11:17:44.666Z,52.20
2018-05-11T11:20:12.962Z,52.00
2018-05-11T11:22:41.287Z,52.30
2018-05-11T11:25:09.585Z,52.70
2018-05-11T11:27:37.876Z,52.60
2018-05-11T11:30:07.252Z,52.60
2018-05-11T11:32:35.620Z,52.60
2018-05-11T11:35:03.906Z,52.50
2018-05-11T11:37:32.201Z,53.20
2018-05-11T11:40:01.252Z,53.80
2018-05-11T11:42:29.526Z,53.10
2018-05-11T11:44:57.838Z,52.10
2018-05-11T11:47:26.112Z,50.80
2018-05-11T11:49:54.436Z,50.60
2018-05-11T11:52:22.812Z,50.90
2018-05-11T11:54:51.105Z,50.90
2018-05-11T11:57:19.359Z,51.50
2018-05-11T11:59:47.635Z,51.40
2018-05-11T12:02:15.923Z,51.60
2018-05-11T12:04:44.197Z,51.30
2018-05-11T12:07:12.463Z,51.00
2018-05-11T12:09:40.750Z,51.20
2018-05-11T12:12:09.024Z,51.30
2018-05-11T12:14:37.282Z,51.40
2018-05-11T12:17:06.348Z,52.40
2018-05-11T12:19:34.726Z,51.80
2018-05-11T12:22:02.935Z,51.50
2018-05-11T12:24:31.190Z,51.80
2018-05-11T12:26:59.462Z,52.30
2018-05-11T12:29:27.731Z,52.30
2018-05-11T12:31:56.015Z,52.70
2018-05-11T12:34:24.411Z,52.60
2018-05-11T12:36:52.680Z,53.00
2018-05-11T12:39:21.109Z,52.50
2018-05-11T12:41:49.348Z,52.10
2018-05-11T12:44:17.751Z,51.60
2018-05-11T12:46:46.017Z,51.90
2018-05-11T12:49:14.311Z,52.50
2018-05-11T12:51:46.002Z,51.70
2018-05-11T12:54:14.389Z,52.20
2018-05-11T12:56:42.646Z,52.40
2018-05-11T12:59:10.960Z,53.20
2018-05-11T13:01:40.008Z,53.00
2018-05-11T13:04:08.324Z,52.90
2018-05-11T13:06:37.367Z,52.30
2018-05-11T13:09:05.659Z,52.30
2018-05-11T13:11:33.931Z,52.60
2018-05-11T13:14:02.203Z,52.50
2018-05-11T13:16:30.482Z,52.10
2018-05-11T13:18:58.768Z,52.20
2018-05-11T13:21:27.081Z,52.10
2018-05-11T13:23:56.129Z,52.50
2018-05-11T13:26:24.419Z,52.40
2018-05-11T13:28:52.713Z,53.10
2018-05-11T13:31:21.074Z,54.20
2018-05-11T13:33:49.331Z,54.50
2018-05-11T13:36:17.665Z,53.70
2018-05-11T13:38:46.734Z,53.30
2018-05-11T13:41:14.978Z,53.30
2018-05-11T13:43:43.256Z,52.70
2018-05-11T13:46:11.538Z,52.50
2018-05-11T13:48:39.846Z,52.60
2018-05-11T13:51:08.128Z,53.10
2018-05-11T13:53:36.419Z,53.20
2018-05-11T13:56:04.699Z,53.50
2018-05-11T13:58:33.717Z,53.80
2018-05-11T14:01:02.015Z,53.20
2018-05-11T14:03:30.507Z,53.40
2018-05-11T14:05:58.783Z,52.50
2018-05-11T14:08:27.471Z,53.40
2018-05-11T14:10:55.712Z,52.80
2018-05-11T14:13:24.030Z,52.60
2018-05-11T14:15:52.322Z,52.50
2018-05-11T14:18:20.653Z,53.30
2018-05-11T14:20:48.934Z,53.30
2018-05-11T14:23:17.193Z,53.70
2018-05-11T14:25:45.475Z,53.40
2018-05-11T14:28:13.768Z,53.40
2018-05-11T14:30:42.052Z,54.20
2018-05-11T14:33:10.917Z,53.70
2018-05-11T14:35:39.234Z,54.00
2018-05-11T14:38:07.536Z,54.30
2018-05-11T14:40:35.858Z,54.30
2018-05-11T14:43:04.134Z,54.90
2018-05-11T14:45:32.557Z,54.60
2018-05-11T14:48:00.834Z,54.40
2018-05-11T14:50:29.119Z,54.60
2018-05-11T14:52:58.165Z,54.40
2018-05-11T14:55:26.441Z,54.30
2018-05-11T14:57:54.705Z,54.00
2018-05-11T15:00:23.041Z,54.80
2018-05-11T15:02:51.393Z,54.80
2018-05-11T15:05:19.712Z,54.40
2018-05-11T15:07:48.004Z,54.40
2018-05-11T15:10:16.431Z,54.20
2018-05-11T15:12:45.409Z,54.10
2018-05-11T15:15:13.724Z,54.00
2018-05-11T15:17:42.032Z,54.70
2018-05-11T15:20:10.319Z,55.00
2018-05-11T15:22:38.621Z,55.00
2018-05-11T15:25:06.902Z,55.60
2018-05-11T15:27:35.182Z,54.80
2018-05-11T15:30:03.447Z,55.20
2018-05-11T15:32:31.718Z,54.80
2018-05-11T15:35:00.096Z,55.10
2018-05-11T15:37:28.412Z,55.20
2018-05-11T15:39:56.883Z,55.30
2018-05-11T15:42:25.144Z,55.30
2018-05-11T15:44:53.424Z,55.60
2018-05-11T15:47:21.687Z,55.60
2018-05-11T15:49:49.996Z,55.30
2018-05-11T15:52:19.063Z,55.40
2018-05-11T15:54:47.331Z,55.40
2018-05-11T15:57:15.616Z,55.50
2018-05-11T15:59:43.910Z,55.40
2018-05-11T16:02:12.262Z,55.50
2018-05-11T16:04:40.541Z,55.70
2018-05-11T16:07:08.807Z,56.20
2018-05-11T16:09:37.088Z,55.90
2018-05-11T16:12:05.631Z,56.00
2018-05-11T16:14:34.109Z,56.10
2018-05-11T16:17:03.135Z,55.60
2018-05-11T16:19:31.437Z,55.50
2018-05-11T16:21:59.700Z,55.60
2018-05-11T16:24:28.002Z,56.00
2018-05-11T16:26:56.312Z,56.00
2018-05-11T16:29:25.368Z,56.70
2018-05-11T16:31:53.817Z,56.70
2018-05-11T16:34:22.115Z,57.20
2018-05-11T16:36:50.389Z,57.30
2018-05-11T16:39:18.678Z,57.30
2018-05-11T16:41:46.956Z,57.30
2018-05-11T16:44:15.225Z,57.20
2018-05-11T16:46:43.479Z,57.20
2018-05-11T16:49:11.759Z,57.20
2018-05-11T16:51:40.037Z,57.70
2018-05-11T16:54:08.307Z,57.80
2018-05-11T16:56:36.713Z,57.70
2018-05-11T16:59:04.964Z,58.10
2018-05-11T17:01:33.247Z,58.30
2018-05-11T17:04:01.517Z,58.30
2018-05-11T17:06:29.775Z,58.10
2018-05-11T17:08:58.065Z,58.00
2018-05-11T17:11:26.330Z,58.20
2018-05-11T17:14:01.139Z,58.00
2018-05-11T17:16:29.528Z,57.90
2018-05-11T17:18:57.777Z,58.10
2018-05-11T17:21:26.816Z,58.40
2018-05-11T17:23:55.106Z,57.80
2018-05-11T17:26:23.405Z,57.90
2018-05-11T17:28:51.665Z,58.20
2018-05-11T17:31:19.937Z,58.00
2018-05-11T17:33:48.206Z,58.10
2018-05-11T17:36:16.509Z,58.50
2018-05-11T17:38:44.787Z,58.70
2018-05-11T17:41:13.057Z,58.60
2018-05-11T17:43:41.362Z,58.50
2018-05-11T17:46:09.643Z,58.50
2018-05-11T17:48:37.999Z,58.70
2018-05-11T17:51:06.286Z,58.90
2018-05-11T17:53:34.626Z,59.00
2018-05-11T17:56:03.721Z,59.30
2018-05-11T17:58:31.996Z,59.30
2018-05-11T18:01:00.292Z,64.60
2018-05-11T18:03:28.621Z,59.90
2018-05-11T18:05:57.653Z,60.00
2018-05-11T18:08:25.928Z,60.00
2018-05-11T18:10:54.204Z,60.10
2018-05-11T18:13:22.476Z,60.20
2018-05-11T18:15:50.766Z,60.30
2018-05-11T18:18:19.070Z,60.50
2018-05-11T18:20:48.114Z,61.10
2018-05-11T18:23:16.392Z,61.00
2018-05-11T18:25:44.680Z,60.90
2018-05-11T18:28:12.961Z,60.90
2018-05-11T18:30:41.194Z,61.30
2018-05-11T18:33:09.522Z,61.80
2018-05-11T18:35:37.982Z,61.70
2018-05-11T18:38:06.234Z,61.90
2018-05-11T18:40:34.567Z,62.10
2018-05-11T18:43:02.854Z,62.70
2018-05-11T18:45:31.157Z,63.20
2018-05-11T18:48:00.393Z,63.80
2018-05-11T18:50:28.660Z,63.90
2018-05-11T18:52:57.075Z,63.70
2018-05-11T18:55:25.299Z,63.60
2018-05-11T18:57:53.551Z,64.00
2018-05-11T19:00:21.854Z,65.40
2018-05-11T19:02:50.135Z,65.10
2018-05-11T19:05:18.430Z,65.20
2018-05-11T19:07:46.727Z,65.60
2018-05-11T19:10:14.988Z,65.90
2018-05-11T19:12:43.266Z,66.00
2018-05-11T19:15:11.610Z,66.20
2018-05-11T19:17:39.899Z,66.40
2018-05-11T19:20:08.157Z,66.50
2018-05-11T19:22:36.439Z,66.60
2018-05-11T19:25:04.775Z,66.60
2018-05-11T19:27:33.089Z,66.80
2018-05-11T19:30:01.444Z,66.90
2018-05-11T19:32:29.726Z,67.30
2018-05-11T19:34:58.785Z,67.50
2018-05-11T19:37:27.067Z,67.50
2018-05-11T19:39:55.361Z,67.80
2018-05-11T19:42:23.650Z,68.20
2018-05-11T19:44:51.943Z,68.70
2018-05-11T19:47:20.215Z,68.70
2018-05-11T19:49:48.493Z,69.30
2018-05-11T19:52:16.860Z,69.30
2018-05-11T19:54:45.185Z,69.80
2018-05-11T19:57:13.520Z,70.20
2018-05-11T19:59:41.737Z,70.10
2018-05-11T20:02:10.121Z,70.60
2018-05-11T20:04:38.448Z,71.10
2018-05-11T20:07:06.690Z,71.50
2018-05-11T20:09:34.970Z,71.50
2018-05-11T20:12:03.261Z,71.80
2018-05-11T20:14:31.553Z,72.20
2018-05-11T20:17:00.654Z,72.80
2018-05-11T20:19:28.948Z,72.80
2018-05-11T20:21:57.244Z,73.30
2018-05-11T20:24:25.532Z,73.30
2018-05-11T20:26:53.892Z,74.10
2018-05-11T20:29:22.184Z,74.30
2018-05-11T20:31:51.243Z,75.10
2018-05-11T20:34:19.506Z,75.00
2018-05-11T20:36:47.825Z,75.00
2018-05-11T20:39:16.135Z,74.50
2018-05-11T20:41:44.550Z,74.20
2018-05-11T20:44:13.601Z,74.00
2018-05-11T20:46:41.895Z,74.10
2018-05-11T20:49:10.199Z,74.50
2018-05-11T20:51:39.259Z,74.10
2018-05-11T20:54:07.600Z,74.10
2018-05-11T20:56:35.900Z,73.80
2018-05-11T20:59:04.179Z,73.70
2018-05-11T21:01:32.506Z,73.70
2018-05-11T21:04:01.550Z,74.10
2018-05-11T21:06:29.848Z,74.00
2018-05-11T21:08:58.141Z,74.10
2018-05-11T21:11:27.180Z,73.90
2018-05-11T21:13:55.458Z,73.90
2018-05-11T21:16:23.749Z,74.40
2018-05-11T21:18:52.026Z,75.30
2018-05-11T21:21:20.312Z,76.40
2018-05-11T21:23:48.606Z,77.70
2018-05-11T21:26:16.888Z,77.80
2018-05-11T21:28:46.777Z,77.50
2018-05-11T21:31:15.055Z,77.00
2018-05-11T21:33:43.344Z,76.70
2018-05-11T21:38:46.602Z,76.40
2018-05-11T21:41:14.885Z,76.00
2018-05-11T21:43:43.148Z,76.40
2018-05-11T21:46:12.030Z,77.60
2018-05-11T21:48:40.383Z,77.50
2018-05-11T21:51:09.348Z,77.50
2018-05-11T21:53:38.381Z,77.10
2018-05-11T21:56:07.401Z,77.40
2018-05-11T21:58:36.373Z,77.00
2018-05-11T22:01:04.719Z,77.20
2018-05-11T22:03:33.004Z,78.20
2018-05-11T22:06:02.147Z,78.50
2018-05-11T22:08:30.371Z,78.40
2018-05-11T22:10:58.649Z,78.60
2018-05-11T22:13:27.770Z,80.10
2018-05-11T22:15:55.989Z,80.00
2018-05-11T22:18:24.294Z,80.50
2018-05-11T22:20:52.564Z,80.60
2018-05-11T22:23:20.843Z,80.20
2018-05-11T22:25:49.231Z,80.80
2018-05-11T22:28:18.382Z,80.60
2018-05-11T22:30:46.655Z,80.60
2018-05-11T22:33:15.011Z,80.10
2018-05-11T22:35:43.289Z,80.00
2018-05-11T22:38:11.562Z,79.80
2018-05-11T22:40:39.822Z,79.90
2018-05-11T22:43:08.878Z,80.70
2018-05-11T22:45:37.143Z,80.70
2018-05-11T22:48:05.436Z,80.60
2018-05-11T22:50:34.495Z,81.20
2018-05-11T22:53:02.770Z,81.10
2018-05-11T22:55:31.055Z,80.70
2018-05-11T22:57:59.343Z,80.50
2018-05-11T23:00:34.081Z,80.50
2018-05-11T23:03:02.378Z,80.20
2018-05-11T23:05:30.659Z,80.00
2018-05-11T23:07:59.010Z,79.80
2018-05-11T23:10:27.300Z,79.60
2018-05-11T23:12:55.563Z,79.30
2018-05-11T23:15:23.855Z,79.30
2018-05-11T23:17:52.602Z,79.30
2018-05-11T23:20:20.886Z,79.40
2018-05-11T23:22:49.162Z,79.30
2018-05-11T23:25:17.518Z,79.80
2018-05-11T23:27:45.889Z,81.50
2018-05-11T23:30:14.103Z,81.70
2018-05-11T23:32:42.361Z,81.20
2018-05-11T23:35:10.670Z,80.90
2018-05-11T23:37:38.909Z,80.60
2018-05-11T23:40:07.178Z,80.60
2018-05-11T23:42:35.527Z,80.70
2018-05-11T23:45:04.565Z,80.70
2018-05-11T23:47:32.883Z,80.70
2018-05-11T23:50:01.143Z,80.80
2018-05-11T23:52:29.421Z,80.40
2018-05-11T23:54:57.691Z,80.40
2018-05-11T23:57:25.996Z,80.60
2018-05-11T23:59:54.455Z,81.00
